LICT

Vincenzo Florio Trapani-Birgi Airport

Trapani, Italy
TAF LICT 162300Z 1700/1709 27012KT 9999 SCT010 BECMG 1706/1707 27015G25KT
Issued Valid From Valid To
Jul-16 @ 23:00 UTC
(an hour ago)
Jul-17 @ 00:00 UTC
(26 minutes ago)
Jul-17 @ 09:00 UTC
(in 9 hours)
Jul-17 @ 00:00 to Jul-17 @ 06:00
TAF LICT 162300Z 1700/1709 27012KT 9999 SCT010
Wind Visibility Clouds
270° at 12 knots 10,000+ meters
  • Scattered at 1,000' AGL
Becoming Jul-17 @ 06:00 to Jul-17 @ 09:00
BECMG 1706/1707 27015G25KT
Wind Visibility Clouds
270° at 15 knots
 Gusting to 25 knots
10,000+ meters
  • Scattered at 1,000' AGL
TAF LICT 162300Z 1700/1709 27012KT 9999 SCT010 BECMG 1706/1707 27015G25KT
Issued Jul-16 @ 23:00 UTC
(an hour ago)
Valid From Jul-17 @ 00:00 UTC
(26 minutes ago)
Valid To Jul-17 @ 09:00 UTC
(in 9 hours)
Jul-17 @ 00:00 - Jul-17 @ 06:00
Wind Visibility
270° at 12 knots 10,000+ meters
Clouds
  • Scattered at 1,000' AGL
Becoming Jul-17 @ 06:00 - Jul-17 @ 09:00
Wind Visibility
270° at 15 knots
 Gusting to 25 knots
10,000+ meters
Clouds
  • Scattered at 1,000' AGL